createdAt,value
2023-01-20T00:00:15.414Z,87.21
2023-01-20T00:01:15.459Z,87.12
2023-01-20T00:02:15.511Z,87.21
2023-01-20T00:03:15.800Z,87.12
2023-01-20T00:05:15.937Z,87.02
2023-01-20T00:06:15.606Z,87.41
2023-01-20T00:07:15.628Z,87.21
2023-01-20T00:08:15.642Z,87.31
2023-01-20T00:09:15.990Z,87.31
2023-01-20T00:10:15.689Z,87.12
2023-01-20T00:11:15.814Z,87.02
2023-01-20T00:12:15.748Z,87.60
2023-01-20T00:13:15.769Z,87.12
2023-01-20T00:14:15.819Z,87.12
2023-01-20T00:16:16.244Z,87.31
2023-01-20T00:17:15.878Z,87.31
2023-01-20T00:18:15.903Z,87.12
2023-01-20T00:19:15.938Z,87.41
2023-01-20T00:20:15.964Z,87.12
2023-01-20T00:21:15.984Z,87.12
2023-01-20T00:22:16.007Z,87.12
2023-01-20T00:23:16.371Z,87.12
2023-01-20T00:24:16.067Z,87.02
2023-01-20T00:25:16.557Z,87.41
2023-01-20T00:27:16.148Z,87.21
2023-01-20T00:28:16.179Z,87.21
2023-01-20T00:29:16.199Z,87.31
2023-01-20T00:30:16.526Z,87.41
2023-01-20T00:31:16.308Z,87.12
2023-01-20T00:32:16.280Z,87.31
2023-01-20T00:33:16.311Z,87.12
2023-01-20T00:34:16.337Z,87.12
2023-01-20T00:35:16.365Z,87.02
2023-01-20T00:37:16.440Z,87.41
2023-01-20T00:38:16.741Z,87.21
2023-01-20T00:39:16.515Z,87.12
2023-01-20T00:40:16.502Z,87.31
2023-01-20T00:41:16.531Z,87.02
2023-01-20T00:42:16.551Z,87.02
2023-01-20T00:43:16.576Z,87.31
2023-01-20T00:44:16.605Z,87.31
2023-01-20T00:45:16.930Z,87.21
2023-01-20T00:46:16.741Z,87.41
2023-01-20T00:47:16.682Z,87.21
2023-01-20T00:48:16.719Z,87.41
2023-01-20T00:49:16.734Z,87.21
2023-01-20T00:50:16.864Z,87.12
2023-01-20T00:52:16.816Z,87.41
2023-01-20T00:53:17.147Z,87.02
2023-01-20T00:54:16.872Z,87.41
2023-01-20T00:55:16.917Z,87.12
2023-01-20T00:56:16.924Z,87.21
2023-01-20T00:57:16.961Z,87.21
2023-01-20T00:58:16.982Z,87.12
2023-01-20T01:00:17.338Z,87.12
2023-01-20T01:01:17.205Z,87.12
2023-01-20T01:02:17.155Z,87.12
2023-01-20T01:03:17.143Z,87.12
2023-01-20T01:04:17.151Z,87.21
2023-01-20T01:05:17.170Z,87.12
2023-01-20T01:06:17.210Z,87.21
2023-01-20T01:07:17.519Z,87.41
2023-01-20T01:08:17.262Z,87.37
2023-01-20T01:09:17.286Z,87.02
2023-01-20T01:10:17.305Z,87.37
2023-01-20T01:11:17.347Z,87.17
2023-01-20T01:12:17.362Z,87.21
2023-01-20T01:13:17.390Z,87.17
2023-01-20T01:14:17.713Z,87.41
2023-01-20T01:15:17.432Z,87.21
2023-01-20T01:16:17.570Z,87.08
2023-01-20T01:17:17.506Z,87.08
2023-01-20T01:18:17.528Z,86.79
2023-01-20T01:19:17.545Z,86.98
2023-01-20T01:20:17.582Z,86.88
2023-01-20T01:21:17.899Z,86.60
2023-01-20T01:23:17.657Z,86.79
2023-01-20T01:24:17.678Z,86.31
2023-01-20T01:25:17.703Z,86.21
2023-01-20T01:26:17.730Z,86.88
2023-01-20T01:27:17.792Z,86.79
2023-01-20T01:28:18.093Z,86.79
2023-01-20T01:29:17.811Z,86.69
2023-01-20T01:30:17.904Z,87.17
2023-01-20T01:31:17.878Z,86.31
2023-01-20T01:32:17.896Z,86.98
2023-01-20T01:33:17.936Z,86.69
2023-01-20T01:34:17.974Z,86.60
2023-01-20T01:36:18.019Z,86.50
2023-01-20T01:37:18.043Z,86.98
2023-01-20T01:38:18.049Z,86.98
2023-01-20T01:39:18.078Z,86.69
2023-01-20T01:40:18.112Z,86.88
2023-01-20T01:41:18.132Z,86.79
2023-01-20T01:42:18.487Z,87.27
2023-01-20T01:43:18.202Z,87.46
2023-01-20T01:45:18.236Z,87.08
2023-01-20T01:46:18.268Z,87.37
2023-01-20T01:47:18.292Z,86.69
2023-01-20T01:48:18.323Z,86.12
2023-01-20T01:49:18.651Z,86.31
2023-01-20T01:50:18.373Z,86.12
2023-01-20T01:51:18.398Z,85.35
2023-01-20T01:52:18.422Z,85.93
2023-01-20T01:53:18.453Z,85.35
2023-01-20T01:54:18.490Z,86.02
2023-01-20T01:55:18.510Z,86.02
2023-01-20T01:56:18.839Z,86.12
2023-01-20T01:57:18.556Z,86.41
2023-01-20T01:58:18.582Z,86.31
2023-01-20T01:59:18.638Z,86.21
2023-01-20T02:00:18.644Z,86.12
2023-01-20T02:02:21.175Z,87.08
2023-01-20T02:03:18.734Z,87.17
2023-01-20T02:04:18.745Z,87.08
2023-01-20T02:05:18.778Z,87.08
2023-01-20T02:06:18.799Z,87.37
2023-01-20T02:07:18.927Z,87.74
2023-01-20T02:08:18.902Z,86.79
2023-01-20T02:09:19.181Z,86.69
2023-01-20T02:10:18.921Z,86.69
2023-01-20T02:11:18.930Z,86.60
2023-01-20T02:12:18.972Z,86.21
2023-01-20T02:13:18.982Z,86.31
2023-01-20T02:14:19.007Z,86.69
2023-01-20T02:15:19.059Z,87.37
2023-01-20T02:16:19.413Z,87.27
2023-01-20T02:17:19.091Z,87.17
2023-01-20T02:18:19.114Z,87.84
2023-01-20T02:20:19.183Z,87.94
2023-01-20T02:21:19.208Z,87.65
2023-01-20T02:22:19.527Z,87.74
2023-01-20T02:23:19.251Z,87.74
2023-01-20T02:24:19.271Z,88.03
2023-01-20T02:25:19.303Z,88.03
2023-01-20T02:27:19.455Z,88.32
2023-01-20T02:28:19.684Z,88.13
2023-01-20T02:29:19.402Z,88.32
2023-01-20T02:30:19.495Z,88.32
2023-01-20T02:31:19.490Z,88.13
2023-01-20T02:32:19.491Z,88.61
2023-01-20T02:33:19.513Z,88.32
2023-01-20T02:34:19.835Z,88.28
2023-01-20T02:35:19.613Z,88.32
2023-01-20T02:36:19.607Z,88.28
2023-01-20T02:37:19.724Z,88.47
2023-01-20T02:39:27.425Z,88.66
2023-01-20T02:41:20.019Z,87.46
2023-01-20T02:42:19.795Z,87.70
2023-01-20T02:43:19.773Z,87.70
2023-01-20T02:44:19.901Z,87.70
2023-01-20T02:46:19.853Z,86.74
2023-01-20T02:47:19.921Z,87.51
2023-01-20T02:48:20.218Z,87.61
2023-01-20T02:49:19.941Z,86.65
2023-01-20T02:50:19.954Z,87.03
2023-01-20T02:51:20.007Z,86.65
2023-01-20T02:52:20.068Z,86.84
2023-01-20T02:53:20.035Z,87.23
2023-01-20T02:55:20.100Z,86.65
2023-01-20T02:56:20.427Z,86.55
2023-01-20T02:58:20.168Z,86.74
2023-01-20T02:59:20.192Z,87.03
2023-01-20T03:00:20.225Z,87.32
2023-01-20T03:01:20.422Z,87.61
2023-01-20T03:02:20.278Z,88.56
2023-01-20T03:03:20.586Z,87.70
2023-01-20T03:04:20.330Z,87.99
2023-01-20T03:05:20.356Z,88.37
2023-01-20T03:06:20.375Z,88.09
2023-01-20T03:07:20.405Z,88.09
2023-01-20T03:08:20.463Z,88.28
2023-01-20T03:09:20.462Z,88.28
2023-01-20T03:10:20.781Z,88.09
2023-01-20T03:11:20.510Z,88.56
2023-01-20T03:12:20.534Z,88.76
2023-01-20T03:13:20.567Z,88.56
2023-01-20T03:14:20.588Z,88.76
2023-01-20T03:15:20.612Z,88.76
2023-01-20T03:16:20.727Z,88.95
2023-01-20T03:17:20.965Z,88.95
2023-01-20T03:19:20.850Z,89.23
2023-01-20T03:20:20.754Z,89.23
2023-01-20T03:21:20.774Z,89.04
2023-01-20T03:22:20.797Z,89.04
2023-01-20T03:23:20.831Z,89.04
2023-01-20T03:24:21.151Z,89.04
2023-01-20T03:25:20.872Z,89.04
2023-01-20T03:26:20.902Z,88.95
2023-01-20T03:27:20.944Z,88.95
2023-01-20T03:28:20.959Z,89.72
2023-01-20T03:29:20.973Z,89.62
2023-01-20T03:30:21.016Z,89.23
2023-01-20T03:31:21.393Z,89.23
2023-01-20T03:32:21.059Z,89.72
2023-01-20T03:33:21.082Z,89.72
2023-01-20T03:34:21.213Z,89.72
2023-01-20T03:35:21.167Z,89.72
2023-01-20T03:36:21.168Z,89.52
2023-01-20T03:37:21.193Z,89.23
2023-01-20T03:38:21.531Z,89.43
2023-01-20T03:39:21.245Z,89.52
2023-01-20T03:40:21.286Z,89.43
2023-01-20T03:43:21.353Z,89.52
2023-01-20T03:44:21.373Z,89.52
2023-01-20T03:45:21.648Z,89.43
2023-01-20T03:46:21.432Z,89.62
2023-01-20T03:47:21.446Z,89.52
2023-01-20T03:48:21.490Z,89.72
2023-01-20T03:49:21.496Z,89.43
2023-01-20T03:50:21.559Z,89.43
2023-01-20T03:51:21.587Z,89.43
2023-01-20T03:52:21.882Z,89.52
2023-01-20T03:53:21.632Z,89.52
2023-01-20T03:54:21.652Z,89.62
2023-01-20T03:55:21.667Z,89.52
2023-01-20T03:56:21.687Z,89.52
2023-01-20T03:57:21.707Z,89.52
2023-01-20T03:58:21.746Z,89.43
2023-01-20T03:59:22.064Z,89.52
2023-01-20T04:00:21.807Z,89.52
2023-01-20T04:01:21.938Z,89.52
2023-01-20T04:02:21.997Z,89.43
2023-01-20T04:03:21.928Z,89.43
2023-01-20T04:04:21.896Z,89.43
2023-01-20T04:05:21.916Z,89.62
2023-01-20T04:06:22.248Z,89.33
2023-01-20T04:07:21.997Z,89.33
2023-01-20T04:08:22.000Z,89.52
2023-01-20T04:12:22.110Z,89.52
2023-01-20T04:13:22.436Z,89.72
2023-01-20T04:14:22.162Z,89.72
2023-01-20T04:15:22.191Z,89.52
2023-01-20T04:16:22.216Z,89.72
2023-01-20T04:17:22.232Z,89.72
2023-01-20T04:18:22.267Z,89.90
2023-01-20T04:19:22.395Z,89.72
2023-01-20T04:20:22.630Z,89.81
2023-01-20T04:21:22.467Z,89.72
2023-01-20T04:22:22.382Z,89.52
2023-01-20T04:23:22.539Z,89.72
2023-01-20T04:24:22.416Z,89.72
2023-01-20T04:25:22.445Z,89.72
2023-01-20T04:26:22.469Z,89.72
2023-01-20T04:27:22.800Z,89.33
2023-01-20T04:28:22.527Z,89.52
2023-01-20T04:29:22.559Z,89.33
2023-01-20T04:30:22.618Z,89.52
2023-01-20T04:31:30.684Z,89.33
2023-01-20T04:32:22.627Z,89.14
2023-01-20T04:33:22.649Z,89.23
2023-01-20T04:34:22.986Z,89.62
2023-01-20T04:35:22.738Z,89.52
2023-01-20T04:36:22.745Z,89.52
2023-01-20T04:37:22.769Z,89.33
2023-01-20T04:38:22.812Z,88.85
2023-01-20T04:39:22.835Z,89.14
2023-01-20T04:40:23.124Z,89.43
2023-01-20T04:41:23.160Z,89.23
2023-01-20T04:43:22.943Z,89.14
2023-01-20T04:44:22.971Z,88.95
2023-01-20T04:45:22.968Z,88.95
2023-01-20T04:46:23.027Z,88.85
2023-01-20T04:47:23.023Z,89.04
2023-01-20T04:48:23.359Z,89.14
2023-01-20T04:49:23.070Z,89.14
2023-01-20T04:51:23.123Z,88.76
2023-01-20T04:52:23.154Z,88.95
2023-01-20T04:53:23.188Z,88.66
2023-01-20T04:54:23.511Z,88.95
2023-01-20T04:55:23.249Z,89.23
2023-01-20T04:56:23.253Z,89.23
2023-01-20T04:57:23.323Z,89.04
2023-01-20T04:58:23.310Z,89.23
2023-01-20T04:59:23.362Z,89.23
2023-01-20T05:00:23.663Z,89.04
2023-01-20T05:01:23.542Z,89.04
2023-01-20T05:02:23.555Z,89.14
2023-01-20T05:03:23.441Z,89.04
2023-01-20T05:04:23.476Z,88.85
2023-01-20T05:05:23.494Z,89.04
2023-01-20T05:06:23.825Z,89.14
2023-01-20T05:07:23.556Z,89.04
2023-01-20T05:08:23.584Z,89.04
2023-01-20T05:09:23.605Z,89.04
2023-01-20T05:10:23.622Z,89.23
2023-01-20T05:11:23.673Z,88.95
2023-01-20T05:12:23.695Z,88.66
2023-01-20T05:13:23.995Z,88.66
2023-01-20T05:15:23.781Z,88.66
2023-01-20T05:16:23.800Z,88.28
2023-01-20T05:17:23.811Z,88.56
2023-01-20T05:18:23.842Z,88.09
2023-01-20T05:19:23.874Z,88.28
2023-01-20T05:20:24.193Z,88.37
2023-01-20T05:21:23.928Z,88.28
2023-01-20T05:22:24.069Z,88.18
2023-01-20T05:23:23.977Z,88.47
2023-01-20T05:24:23.991Z,88.09
2023-01-20T05:25:24.035Z,88.09
2023-01-20T05:26:24.047Z,88.18
2023-01-20T05:28:24.119Z,87.80
2023-01-20T05:29:24.127Z,87.70
2023-01-20T05:30:24.174Z,87.80
2023-01-20T05:31:24.248Z,87.80
2023-01-20T05:32:24.208Z,87.61
2023-01-20T05:33:24.238Z,87.61
2023-01-20T05:34:24.567Z,87.80
2023-01-20T05:35:24.296Z,87.80
2023-01-20T05:36:24.349Z,87.90
2023-01-20T05:37:24.338Z,87.41
2023-01-20T05:38:24.392Z,87.90
2023-01-20T05:39:24.390Z,87.80
2023-01-20T05:40:24.427Z,87.90
2023-01-20T05:41:24.787Z,87.80
2023-01-20T05:42:24.490Z,87.61
2023-01-20T05:43:24.507Z,87.99
2023-01-20T05:44:24.548Z,87.61
2023-01-20T05:45:24.555Z,87.61
2023-01-20T05:46:24.600Z,87.70
2023-01-20T05:47:24.621Z,87.70
2023-01-20T05:48:24.937Z,87.70
2023-01-20T05:49:24.649Z,87.90
2023-01-20T05:50:24.682Z,88.28
2023-01-20T05:51:24.779Z,87.70
2023-01-20T05:52:24.743Z,88.28
2023-01-20T05:53:24.759Z,88.28
2023-01-20T05:54:24.784Z,88.37
2023-01-20T05:55:25.122Z,88.37
2023-01-20T05:56:24.843Z,88.28
2023-01-20T05:57:24.865Z,87.70
2023-01-20T05:58:24.892Z,87.90
2023-01-20T05:59:24.920Z,87.61
2023-01-20T06:00:24.971Z,87.90
2023-01-20T06:01:25.032Z,87.61
2023-01-20T06:02:25.063Z,88.28
2023-01-20T06:03:25.053Z,87.90
2023-01-20T06:04:25.063Z,87.61
2023-01-20T06:05:25.082Z,87.61
2023-01-20T06:06:25.222Z,87.61
2023-01-20T06:07:25.143Z,87.61
2023-01-20T06:08:25.158Z,87.61
2023-01-20T06:09:25.180Z,87.99
2023-01-20T06:10:25.260Z,87.90
2023-01-20T06:11:25.245Z,87.90
2023-01-20T06:12:25.271Z,87.70
2023-01-20T06:13:25.286Z,87.80
2023-01-20T06:14:25.616Z,87.90
2023-01-20T06:15:25.360Z,87.80
2023-01-20T06:16:25.438Z,87.70
2023-01-20T06:17:25.398Z,87.70
2023-01-20T06:18:25.436Z,87.90
2023-01-20T06:19:25.446Z,87.70
2023-01-20T06:20:25.477Z,87.90
2023-01-20T06:21:25.509Z,87.80
2023-01-20T06:22:25.525Z,87.90
2023-01-20T06:23:25.557Z,87.80
2023-01-20T06:24:25.585Z,87.99
2023-01-20T06:25:25.610Z,87.99
2023-01-20T06:26:25.943Z,87.90
2023-01-20T06:27:25.769Z,87.41
2023-01-20T06:28:25.683Z,87.41
2023-01-20T06:29:25.708Z,87.80
2023-01-20T06:30:25.736Z,87.90
2023-01-20T06:31:25.882Z,87.70
2023-01-20T06:32:25.842Z,87.70
2023-01-20T06:33:26.118Z,87.70
2023-01-20T06:34:25.850Z,87.80
2023-01-20T06:35:25.871Z,87.61
2023-01-20T06:36:25.894Z,87.61
2023-01-20T06:37:25.946Z,87.61
2023-01-20T06:38:25.949Z,87.61
2023-01-20T06:39:25.980Z,87.61
2023-01-20T06:40:26.256Z,87.61
2023-01-20T06:41:26.042Z,87.99
2023-01-20T06:42:26.059Z,87.61
2023-01-20T06:43:26.093Z,87.61
2023-01-20T06:44:26.119Z,87.90
2023-01-20T06:45:26.136Z,87.32
2023-01-20T06:46:26.239Z,87.80
2023-01-20T06:47:26.207Z,87.70
2023-01-20T06:48:26.243Z,87.61
2023-01-20T06:49:26.239Z,87.41
2023-01-20T06:50:26.272Z,87.32
2023-01-20T06:51:26.302Z,87.23
2023-01-20T06:52:26.330Z,87.23
2023-01-20T06:53:26.353Z,87.61
2023-01-20T06:54:26.378Z,87.51
2023-01-20T06:55:26.404Z,87.70
2023-01-20T06:56:26.451Z,87.23
2023-01-20T06:57:26.463Z,87.32
2023-01-20T06:58:26.482Z,87.51
2023-01-20T07:00:26.533Z,87.41
2023-01-20T07:01:26.736Z,87.41
2023-01-20T07:02:26.642Z,87.51
2023-01-20T07:03:26.622Z,87.51
2023-01-20T07:04:26.664Z,87.70
2023-01-20T07:05:26.975Z,87.99
2023-01-20T07:06:26.701Z,87.99
2023-01-20T07:08:26.752Z,87.23
2023-01-20T07:09:26.788Z,87.70
2023-01-20T07:10:26.812Z,87.32
2023-01-20T07:11:27.082Z,87.70
2023-01-20T07:12:26.863Z,87.32
2023-01-20T07:13:26.886Z,87.23
2023-01-20T07:14:26.915Z,87.32
2023-01-20T07:15:26.939Z,87.03
2023-01-20T07:16:27.053Z,87.13
2023-01-20T07:17:27.289Z,86.74
2023-01-20T07:18:27.035Z,86.84
2023-01-20T07:19:27.045Z,86.84
2023-01-20T07:20:27.086Z,86.65
2023-01-20T07:22:27.117Z,86.94
2023-01-20T07:23:27.146Z,87.03
2023-01-20T07:26:27.230Z,87.70
2023-01-20T07:27:27.255Z,87.61
2023-01-20T07:28:27.321Z,87.51
2023-01-20T07:29:27.334Z,87.51
2023-01-20T07:30:27.409Z,87.80
2023-01-20T07:31:29.679Z,87.70
2023-01-20T07:32:27.398Z,87.70
2023-01-20T07:33:27.414Z,87.70
2023-01-20T07:34:27.439Z,87.51
2023-01-20T07:36:27.567Z,87.51
2023-01-20T07:37:27.814Z,87.13
2023-01-20T07:38:27.541Z,87.13
2023-01-20T07:39:27.573Z,87.23
2023-01-20T07:40:27.748Z,87.13
2023-01-20T07:41:27.622Z,87.13
2023-01-20T07:42:27.652Z,87.13
2023-01-20T07:43:27.679Z,87.03
2023-01-20T07:44:27.707Z,87.03
2023-01-20T07:45:27.758Z,86.84
2023-01-20T07:46:27.778Z,86.74
2023-01-20T07:47:27.881Z,86.74
2023-01-20T07:48:27.834Z,86.65
2023-01-20T07:49:27.837Z,86.65
2023-01-20T07:50:28.217Z,86.94
2023-01-20T07:51:27.887Z,86.74
2023-01-20T07:52:27.933Z,86.74
2023-01-20T07:53:27.979Z,86.55
2023-01-20T07:54:28.082Z,86.65
2023-01-20T07:55:27.996Z,87.32
2023-01-20T07:56:28.048Z,87.41
2023-01-20T07:57:28.350Z,87.03
2023-01-20T07:59:28.127Z,86.84
2023-01-20T08:00:28.171Z,86.65
2023-01-20T08:01:28.321Z,86.65
2023-01-20T08:03:28.518Z,86.65
2023-01-20T08:04:28.294Z,86.65
2023-01-20T08:05:28.259Z,86.74
2023-01-20T08:06:28.292Z,86.46
2023-01-20T08:07:28.316Z,86.65
2023-01-20T08:08:28.549Z,86.65
2023-01-20T08:09:28.660Z,86.74
2023-01-20T08:11:28.530Z,86.84
2023-01-20T08:12:28.450Z,86.84
2023-01-20T08:13:28.523Z,86.74
2023-01-20T08:16:28.884Z,86.27
2023-01-20T08:17:28.582Z,86.46
2023-01-20T08:18:28.601Z,86.27
2023-01-20T08:19:28.732Z,86.27
2023-01-20T08:20:28.651Z,86.17
2023-01-20T08:21:28.681Z,86.27
2023-01-20T08:22:28.709Z,86.17
2023-01-20T08:23:28.755Z,86.27
2023-01-20T08:24:28.803Z,86.17
2023-01-20T08:25:28.871Z,86.36
2023-01-20T08:26:28.816Z,86.36
2023-01-20T08:27:28.860Z,86.36
2023-01-20T08:28:29.190Z,86.17
2023-01-20T08:29:28.917Z,86.55
2023-01-20T08:30:28.954Z,86.46
2023-01-20T08:31:29.025Z,86.55
2023-01-20T08:32:28.972Z,86.55
2023-01-20T08:33:29.006Z,86.36
2023-01-20T08:34:29.036Z,85.98
2023-01-20T08:35:29.352Z,86.27
2023-01-20T08:36:29.131Z,85.88
2023-01-20T08:37:29.107Z,85.79
2023-01-20T08:38:29.138Z,86.17
2023-01-20T08:39:29.246Z,85.88
2023-01-20T08:41:29.555Z,85.98
2023-01-20T08:42:29.239Z,86.08
2023-01-20T08:43:29.267Z,85.88
2023-01-20T08:44:29.298Z,85.50
2023-01-20T08:45:29.329Z,85.50
2023-01-20T08:46:29.396Z,85.69
2023-01-20T08:47:29.380Z,85.60
2023-01-20T08:48:29.452Z,85.31
2023-01-20T08:49:29.426Z,85.41
2023-01-20T08:50:29.460Z,85.50
2023-01-20T08:51:29.589Z,85.41
2023-01-20T08:52:29.507Z,85.60
2023-01-20T08:53:29.531Z,85.60
2023-01-20T08:54:30.593Z,85.50
2023-01-20T08:55:29.584Z,85.88
2023-01-20T08:56:29.618Z,85.88
2023-01-20T08:57:29.660Z,85.50
2023-01-20T08:58:29.669Z,85.12
2023-01-20T08:59:29.718Z,84.92
2023-01-20T09:00:30.274Z,84.83
2023-01-20T09:01:29.801Z,84.83
2023-01-20T09:02:29.864Z,84.55
2023-01-20T09:03:31.641Z,84.45
2023-01-20T09:04:29.832Z,84.74
2023-01-20T09:06:30.188Z,85.06
2023-01-20T09:07:29.978Z,84.97
2023-01-20T09:08:29.934Z,85.16
2023-01-20T09:09:30.520Z,84.83
2023-01-20T09:10:29.990Z,84.97
2023-01-20T09:11:30.050Z,85.35
2023-01-20T09:12:30.341Z,84.58
2023-01-20T09:13:30.093Z,84.88
2023-01-20T09:14:30.094Z,84.78
2023-01-20T09:15:30.136Z,85.64
2023-01-20T09:16:30.151Z,85.45
2023-01-20T09:17:30.178Z,85.45
2023-01-20T09:18:30.198Z,84.88
2023-01-20T09:19:30.528Z,85.06
2023-01-20T09:20:30.269Z,84.97
2023-01-20T09:21:30.290Z,85.16
2023-01-20T09:22:30.324Z,84.78
2023-01-20T09:23:30.352Z,84.68
2023-01-20T09:24:30.362Z,84.58
2023-01-20T09:25:30.401Z,84.58
2023-01-20T09:26:35.749Z,84.78
2023-01-20T09:27:30.443Z,84.88
2023-01-20T09:28:30.489Z,84.68
2023-01-20T09:29:30.522Z,84.58
2023-01-20T09:30:30.519Z,84.49
2023-01-20T09:31:30.669Z,84.68
2023-01-20T09:32:30.587Z,84.68
2023-01-20T09:33:30.903Z,84.68
2023-01-20T09:34:30.670Z,84.68
2023-01-20T09:35:30.663Z,84.78
2023-01-20T09:36:30.752Z,84.49
2023-01-20T09:37:30.723Z,84.49
2023-01-20T09:38:30.743Z,84.49
2023-01-20T09:39:30.767Z,84.39
2023-01-20T09:40:31.097Z,84.49
2023-01-20T09:42:30.847Z,84.39
2023-01-20T09:43:30.867Z,84.49
2023-01-20T09:44:30.909Z,84.49
2023-01-20T09:45:30.978Z,84.49
2023-01-20T09:46:30.972Z,84.49
2023-01-20T09:47:31.671Z,84.49
2023-01-20T09:48:31.004Z,84.49
2023-01-20T09:50:31.063Z,84.88
2023-01-20T09:51:31.082Z,83.82
2023-01-20T09:52:31.118Z,84.01
2023-01-20T09:53:31.149Z,84.11
2023-01-20T09:54:31.174Z,84.30
2023-01-20T09:55:31.191Z,84.20
2023-01-20T09:56:31.232Z,84.20
2023-01-20T09:57:31.274Z,84.11
2023-01-20T09:58:31.280Z,83.82
2023-01-20T09:59:31.331Z,84.30
2023-01-20T10:00:31.647Z,84.11
2023-01-20T10:01:31.568Z,83.82
2023-01-20T10:02:31.386Z,84.01
2023-01-20T10:03:31.406Z,84.30
2023-01-20T10:04:31.435Z,84.01
2023-01-20T10:05:31.541Z,84.39
2023-01-20T10:06:31.492Z,84.11
2023-01-20T10:07:31.815Z,83.92
2023-01-20T10:08:31.557Z,84.20
2023-01-20T10:09:33.639Z,84.20
2023-01-20T10:10:31.603Z,84.20
2023-01-20T10:11:31.654Z,83.92
2023-01-20T10:12:31.667Z,83.82
2023-01-20T10:13:31.681Z,83.63
2023-01-20T10:14:32.006Z,83.72
2023-01-20T10:15:31.742Z,83.82
2023-01-20T10:16:31.768Z,83.72
2023-01-20T10:17:31.815Z,83.72
2023-01-20T10:18:31.822Z,83.72
2023-01-20T10:19:31.944Z,83.72
2023-01-20T10:20:32.184Z,83.72
2023-01-20T10:21:31.892Z,83.92
2023-01-20T10:22:31.935Z,83.92
2023-01-20T10:23:31.965Z,83.92
2023-01-20T10:24:31.978Z,83.82
2023-01-20T10:25:32.001Z,84.11
2023-01-20T10:26:32.304Z,83.53
2023-01-20T10:27:32.115Z,83.53
2023-01-20T10:28:32.084Z,84.30
2023-01-20T10:29:32.117Z,83.63
2023-01-20T10:30:32.175Z,83.44
2023-01-20T10:31:32.207Z,83.72
2023-01-20T10:32:32.206Z,83.44
2023-01-20T10:33:32.343Z,83.44
2023-01-20T10:34:32.247Z,83.63
2023-01-20T10:35:32.279Z,83.63
2023-01-20T10:36:32.299Z,83.53
2023-01-20T10:37:32.333Z,83.63
2023-01-20T10:38:32.360Z,83.63
2023-01-20T10:39:32.379Z,83.72
2023-01-20T10:40:35.023Z,83.44
2023-01-20T10:41:32.432Z,83.72
2023-01-20T10:42:32.476Z,83.63
2023-01-20T10:43:32.493Z,83.72
2023-01-20T10:44:32.561Z,83.63
2023-01-20T10:45:32.547Z,83.72
2023-01-20T10:46:32.606Z,83.63
2023-01-20T10:47:32.593Z,83.92
2023-01-20T10:48:32.672Z,83.53
2023-01-20T10:49:32.693Z,83.82
2023-01-20T10:50:32.793Z,83.72
2023-01-20T10:51:32.703Z,83.82
2023-01-20T10:52:32.724Z,83.82
2023-01-20T10:53:32.759Z,83.34
2023-01-20T10:54:32.794Z,83.82
2023-01-20T10:55:32.815Z,83.15
2023-01-20T10:56:33.199Z,83.34
2023-01-20T10:58:32.923Z,83.53
2023-01-20T10:59:32.930Z,83.15
2023-01-20T11:00:32.957Z,83.44
2023-01-20T11:01:33.017Z,83.53
2023-01-20T11:02:33.411Z,83.05
2023-01-20T11:03:33.037Z,83.25
2023-01-20T11:05:33.113Z,83.25
2023-01-20T11:06:33.108Z,83.05
2023-01-20T11:07:33.131Z,83.25
2023-01-20T11:08:33.472Z,83.25
2023-01-20T11:09:33.191Z,83.25
2023-01-20T11:10:33.233Z,83.25
2023-01-20T11:11:33.267Z,83.25
2023-01-20T11:12:33.399Z,83.15
2023-01-20T11:13:33.308Z,83.25
2023-01-20T11:14:33.323Z,83.25
2023-01-20T11:15:33.354Z,83.53
2023-01-20T11:16:33.389Z,83.25
2023-01-20T11:17:33.405Z,83.15
2023-01-20T11:18:33.444Z,83.15
2023-01-20T11:19:33.455Z,82.96
2023-01-20T11:20:33.486Z,83.44
2023-01-20T11:21:33.586Z,82.86
2023-01-20T11:22:33.539Z,82.76
2023-01-20T11:23:33.581Z,82.86
2023-01-20T11:24:33.596Z,82.76
2023-01-20T11:25:33.659Z,82.86
2023-01-20T11:26:33.657Z,82.86
2023-01-20T11:27:33.678Z,82.96
2023-01-20T11:28:33.705Z,82.86
2023-01-20T11:29:33.729Z,82.96
2023-01-20T11:31:33.881Z,82.67
2023-01-20T11:32:33.817Z,82.86
2023-01-20T11:33:33.893Z,82.48
2023-01-20T11:34:33.882Z,82.48
2023-01-20T11:35:33.897Z,82.57
2023-01-20T11:36:33.925Z,82.86
2023-01-20T11:37:33.969Z,82.48
2023-01-20T11:38:33.980Z,82.86
2023-01-20T11:39:34.295Z,82.48
2023-01-20T11:40:34.026Z,82.76
2023-01-20T11:41:34.054Z,82.67
2023-01-20T11:42:36.636Z,82.76
2023-01-20T11:43:34.112Z,82.67
2023-01-20T11:44:34.166Z,82.67
2023-01-20T11:45:34.556Z,82.57
2023-01-20T11:46:34.632Z,82.96
2023-01-20T11:47:34.236Z,82.96
2023-01-20T11:48:34.244Z,83.05
2023-01-20T11:49:34.277Z,82.86
2023-01-20T11:50:34.326Z,82.86
2023-01-20T11:51:34.704Z,82.57
2023-01-20T11:52:34.354Z,82.76
2023-01-20T11:53:34.404Z,82.86
2023-01-20T11:54:36.390Z,82.76
2023-01-20T11:55:34.494Z,82.57
2023-01-20T11:56:34.467Z,82.48
2023-01-20T11:57:34.504Z,82.67
2023-01-20T11:58:34.817Z,82.57
2023-01-20T11:59:34.547Z,82.57
2023-01-20T12:00:36.421Z,82.19
2023-01-20T12:01:34.655Z,82.57
2023-01-20T12:02:34.636Z,82.38
2023-01-20T12:03:34.654Z,82.76
2023-01-20T12:04:34.759Z,82.76
2023-01-20T12:05:35.020Z,83.05
2023-01-20T12:06:34.740Z,82.86
2023-01-20T12:07:34.765Z,82.76
2023-01-20T12:08:34.790Z,82.76
2023-01-20T12:09:34.851Z,82.57
2023-01-20T12:10:34.835Z,82.57
2023-01-20T12:11:34.923Z,82.57
2023-01-20T12:12:35.203Z,82.76
2023-01-20T12:13:34.923Z,82.67
2023-01-20T12:14:34.976Z,82.86
2023-01-20T12:15:34.983Z,83.05
2023-01-20T12:16:35.086Z,82.76
2023-01-20T12:17:35.033Z,82.76
2023-01-20T12:18:35.058Z,82.86
2023-01-20T12:19:35.392Z,82.86
2023-01-20T12:20:45.647Z,82.96
2023-01-20T12:21:35.143Z,82.86
2023-01-20T12:22:35.167Z,82.48
2023-01-20T12:23:35.194Z,82.67
2023-01-20T12:24:42.719Z,82.67
2023-01-20T12:25:35.275Z,82.67
2023-01-20T12:27:35.312Z,82.86
2023-01-20T12:28:35.398Z,82.76
2023-01-20T12:29:35.360Z,82.67
2023-01-20T12:30:35.414Z,82.67
2023-01-20T12:31:35.458Z,82.86
2023-01-20T12:32:35.432Z,82.67
2023-01-20T12:33:35.782Z,82.76
2023-01-20T12:34:35.553Z,82.86
2023-01-20T12:35:35.541Z,82.67
2023-01-20T12:36:35.551Z,82.86
2023-01-20T12:37:35.588Z,82.86
2023-01-20T12:38:35.601Z,82.67
2023-01-20T12:39:35.796Z,82.57
2023-01-20T12:40:35.986Z,82.86
2023-01-20T12:41:35.710Z,82.67
2023-01-20T12:42:35.721Z,82.67
2023-01-20T12:43:35.791Z,82.76
2023-01-20T12:44:35.766Z,82.67
2023-01-20T12:45:35.842Z,82.67
2023-01-20T12:46:35.837Z,82.67
2023-01-20T12:47:36.142Z,82.67
2023-01-20T12:48:35.874Z,82.57
2023-01-20T12:49:35.892Z,82.76
2023-01-20T12:50:35.972Z,82.76
2023-01-20T12:51:36.011Z,82.67
2023-01-20T12:52:36.013Z,82.96
2023-01-20T12:53:36.006Z,83.05
2023-01-20T12:54:48.025Z,82.67
2023-01-20T12:55:36.081Z,82.57
2023-01-20T12:56:36.091Z,82.96
2023-01-20T12:57:36.142Z,82.86
2023-01-20T12:58:36.170Z,82.67
2023-01-20T12:59:36.167Z,82.48
2023-01-20T13:00:36.204Z,82.48
2023-01-20T13:01:36.284Z,82.67
2023-01-20T13:02:36.298Z,82.67
2023-01-20T13:03:36.299Z,82.67
2023-01-20T13:04:36.305Z,82.67
2023-01-20T13:05:36.335Z,82.67
2023-01-20T13:06:36.556Z,82.96
2023-01-20T13:07:36.440Z,82.57
2023-01-20T13:08:36.452Z,83.05
2023-01-20T13:09:36.489Z,82.96
2023-01-20T13:10:36.484Z,82.48
2023-01-20T13:11:36.501Z,82.86
2023-01-20T13:12:36.833Z,82.86
2023-01-20T13:13:48.034Z,82.96
2023-01-20T13:14:36.583Z,82.48
2023-01-20T13:15:36.618Z,82.48
2023-01-20T13:16:36.702Z,82.48
2023-01-20T13:17:36.658Z,82.48
2023-01-20T13:18:36.982Z,82.67
2023-01-20T13:19:36.772Z,82.48
2023-01-20T13:20:36.744Z,82.67
2023-01-20T13:21:36.759Z,82.67
2023-01-20T13:22:36.800Z,82.76
2023-01-20T13:23:36.816Z,82.67
2023-01-20T13:25:37.174Z,82.96
2023-01-20T13:26:36.898Z,82.82
2023-01-20T13:27:36.928Z,82.96
2023-01-20T13:28:36.947Z,82.96
2023-01-20T13:29:37.009Z,82.86
2023-01-20T13:30:37.260Z,82.96
2023-01-20T13:31:37.254Z,82.86
2023-01-20T13:32:37.074Z,82.82
2023-01-20T13:33:37.132Z,82.86
2023-01-20T13:34:37.125Z,82.96
2023-01-20T13:35:37.142Z,82.86
2023-01-20T13:36:37.174Z,82.73
2023-01-20T13:37:37.193Z,82.73
2023-01-20T13:38:37.522Z,82.96
2023-01-20T13:39:37.255Z,82.92